Time;durP1;ratioP1;P1;durP2;ratioP2;P2;SDS_P1;SDS_P2;PMS_P1;PMS_P2;Temp;Humidity;BMP_temperature;BMP_pressure;BME280_temperature;BME280_humidity;BME280_pressure;Samples;Min_cycle;Max_cycle;Signal;HPM_P1;HPM_P2
2023/03/15 00:01:18;;;;;;;5.90;2.67;;;2.50;98.20;;;;;;5013363;28;20200;-67
2023/03/15 00:03:44;;;;;;;5.03;2.50;;;2.50;99.90;;;;;;5013700;28;20951;-73
2023/03/15 00:06:10;;;;;;;4.17;2.97;;;2.50;99.90;;;;;;5013986;28;20486;-74
2023/03/15 00:08:36;;;;;;;6.30;2.50;;;2.40;99.90;;;;;;5013896;28;20457;-73
2023/03/15 00:11:03;;;;;;;3.93;1.87;;;2.40;99.90;;;;;;5012303;28;20407;-74
2023/03/15 00:13:29;;;;;;;2.90;2.60;;;2.50;99.90;;;;;;5013813;28;20430;-70
2023/03/15 00:15:58;;;;;;;5.60;2.00;;;2.50;99.90;;;;;;5012739;28;20419;-67
2023/03/15 00:18:24;;;;;;;3.03;2.80;;;2.50;99.90;;;;;;5013956;28;20411;-66
2023/03/15 00:20:50;;;;;;;7.37;2.90;;;2.50;99.90;;;;;;5013066;28;20495;-73
2023/03/15 00:23:16;;;;;;;5.23;2.50;;;2.60;99.90;;;;;;5013237;28;20538;-69
2023/03/15 00:25:50;;;;;;;8.20;2.87;;;2.70;99.90;;;;;;5013388;28;20534;-67
2023/03/15 00:28:16;;;;;;;4.70;2.20;;;2.80;99.90;;;;;;5013630;28;20404;-66
2023/03/15 00:30:42;;;;;;;3.53;2.00;;;2.80;99.90;;;;;;5012866;28;20982;-74
2023/03/15 00:33:12;;;;;;;3.40;2.00;;;2.90;99.90;;;;;;5013616;28;20558;-66
2023/03/15 00:35:39;;;;;;;7.90;1.90;;;2.80;99.90;;;;;;5013508;28;20490;-74
2023/03/15 00:38:06;;;;;;;2.73;2.10;;;2.60;99.90;;;;;;5013385;28;20846;-73
2023/03/15 00:40:32;;;;;;;5.03;2.33;;;2.60;99.90;;;;;;5012616;28;20406;-67
2023/03/15 00:42:57;;;;;;;4.50;2.33;;;2.50;99.90;;;;;;5013368;28;20951;-74
2023/03/15 00:45:23;;;;;;;5.90;3.00;;;2.50;99.90;;;;;;5013391;28;20526;-74
2023/03/15 00:47:51;;;;;;;3.90;1.87;;;2.50;99.90;;;;;;5013453;28;20403;-66
2023/03/15 00:50:17;;;;;;;2.50;2.30;;;2.50;99.90;;;;;;5012713;28;20183;-73
2023/03/15 00:52:43;;;;;;;2.70;1.80;;;2.40;99.90;;;;;;5013292;28;20411;-74
2023/03/15 00:55:14;;;;;;;4.70;2.47;;;2.30;99.90;;;;;;5013456;28;20759;-66
2023/03/15 00:57:41;;;;;;;2.33;2.13;;;2.20;99.90;;;;;;5013388;28;20173;-72
2023/03/15 01:00:10;;;;;;;4.23;2.03;;;2.20;99.90;;;;;;5012398;28;20477;-67
2023/03/15 01:02:36;;;;;;;3.50;2.10;;;2.20;99.90;;;;;;5013200;28;20453;-71
2023/03/15 01:05:05;;;;;;;4.73;2.30;;;2.20;99.90;;;;;;5013236;28;20465;-73
2023/03/15 01:07:32;;;;;;;1.83;1.73;;;2.20;99.90;;;;;;5013260;28;20438;-66
2023/03/15 01:09:58;;;;;;;3.00;1.97;;;2.20;99.90;;;;;;5012905;28;20407;-73
2023/03/15 01:12:24;;;;;;;2.07;1.80;;;2.20;99.90;;;;;;5012820;28;20415;-73
2023/03/15 01:14:50;;;;;;;3.67;2.13;;;2.20;99.90;;;;;;5013117;28;20418;-67
2023/03/15 01:17:15;;;;;;;4.87;1.80;;;2.30;99.90;;;;;;5011848;28;20186;-71
2023/03/15 01:19:41;;;;;;;2.80;1.90;;;2.30;99.90;;;;;;5011937;28;20168;-66
2023/03/15 01:22:07;;;;;;;2.10;1.97;;;2.20;99.90;;;;;;5012290;28;20242;-74
2023/03/15 01:24:32;;;;;;;7.20;2.47;;;2.20;99.90;;;;;;5013008;28;20227;-71
2023/03/15 01:26:58;;;;;;;4.93;2.57;;;2.20;99.90;;;;;;5013241;28;20251;-73
2023/03/15 01:29:24;;;;;;;2.37;2.17;;;2.20;99.90;;;;;;5011653;28;20173;-67
2023/03/15 01:31:49;;;;;;;8.63;2.70;;;2.20;99.90;;;;;;5012469;28;20682;-66
2023/03/15 01:34:15;;;;;;;5.60;1.77;;;2.10;99.90;;;;;;5012841;28;20172;-73
2023/03/15 01:36:41;;;;;;;7.03;2.70;;;2.10;99.90;;;;;;5014305;28;20239;-73
2023/03/15 01:39:07;;;;;;;4.83;2.13;;;2.10;99.90;;;;;;5016876;28;20255;-73
2023/03/15 01:41:32;;;;;;;4.33;2.70;;;2.10;99.90;;;;;;5016006;28;20660;-73
2023/03/15 01:43:58;;;;;;;2.67;2.47;;;2.10;99.90;;;;;;5016455;28;20215;-73
2023/03/15 01:46:33;;;;;;;3.50;2.33;;;2.10;99.90;;;;;;5016556;28;20168;-68
2023/03/15 01:49:06;;;;;;;4.60;2.07;;;2.00;99.90;;;;;;5017049;28;20223;-73
2023/03/15 01:51:35;;;;;;;6.50;2.20;;;2.00;99.90;;;;;;5015807;28;20509;-73
2023/03/15 01:54:18;;;;;;;8.03;2.70;;;2.00;99.90;;;;;;5016088;28;20474;-67
2023/03/15 01:56:49;;;;;;;3.93;2.10;;;2.00;99.90;;;;;;5016315;28;20403;-67
2023/03/15 01:59:25;;;;;;;13.07;2.97;;;2.10;99.90;;;;;;5016278;28;20411;-68
2023/03/15 02:01:53;;;;;;;2.73;2.50;;;2.00;99.90;;;;;;5015681;28;20454;-68
2023/03/15 02:04:24;;;;;;;2.07;1.90;;;1.90;99.90;;;;;;5016445;28;20800;-72
2023/03/15 02:06:57;;;;;;;13.30;2.93;;;1.90;99.90;;;;;;5016206;28;20411;-73
2023/03/15 02:09:31;;;;;;;2.60;2.40;;;1.90;99.90;;;;;;5016194;28;20399;-67
2023/03/15 02:11:56;;;;;;;6.87;2.17;;;1.90;99.90;;;;;;5015174;28;20426;-73
2023/03/15 02:14:23;;;;;;;5.00;2.07;;;1.90;99.90;;;;;;5015951;28;20403;-66
2023/03/15 02:16:49;;;;;;;2.90;2.70;;;1.90;99.90;;;;;;5015927;28;20179;-73
2023/03/15 02:19:34;;;;;;;5.00;2.90;;;1.90;99.90;;;;;;5014915;28;20510;-72
2023/03/15 02:22:19;;;;;;;6.57;2.20;;;1.90;99.90;;;;;;5015186;28;20703;-73
2023/03/15 02:24:59;;;;;;;2.53;2.20;;;1.90;99.90;;;;;;5015707;28;20449;-67
2023/03/15 02:27:35;;;;;;;2.20;2.00;;;1.80;99.90;;;;;;5015812;28;20407;-66
2023/03/15 02:30:02;;;;;;;2.50;2.33;;;1.80;99.90;;;;;;5015509;28;20402;-73
2023/03/15 02:32:29;;;;;;;3.53;1.93;;;1.80;99.90;;;;;;5015214;28;20184;-74
2023/03/15 02:34:55;;;;;;;2.00;1.90;;;1.80;99.90;;;;;;5015609;28;20481;-73
2023/03/15 02:37:21;;;;;;;2.43;2.00;;;1.90;99.90;;;;;;5015633;28;20411;-67
2023/03/15 02:39:47;;;;;;;2.37;2.10;;;1.90;99.90;;;;;;5014630;28;20924;-67
2023/03/15 02:42:13;;;;;;;7.83;2.00;;;1.90;99.90;;;;;;5014888;28;20204;-67
2023/03/15 02:44:42;;;;;;;3.17;1.97;;;1.90;99.90;;;;;;5015449;28;20196;-67
2023/03/15 02:47:17;;;;;;;6.60;1.43;;;2.00;99.90;;;;;;5015282;28;20780;-73
2023/03/15 02:49:51;;;;;;;5.93;3.53;;;2.00;99.90;;;;;;5015320;28;20734;-68
2023/03/15 02:52:16;;;;;;;7.53;2.43;;;2.00;99.90;;;;;;5014742;28;20418;-74
2023/03/15 02:54:42;;;;;;;2.97;2.70;;;1.90;99.90;;;;;;5015586;28;20411;-70
2023/03/15 02:57:12;;;;;;;1.83;1.73;;;1.80;99.90;;;;;;5014052;28;20176;-74
2023/03/15 02:59:38;;;;;;;3.00;2.10;;;1.80;99.90;;;;;;5015237;28;20168;-67
2023/03/15 03:02:05;;;;;;;2.00;1.90;;;1.70;99.90;;;;;;5014504;28;20837;-67
2023/03/15 03:04:30;;;;;;;7.80;2.37;;;1.60;99.90;;;;;;5015166;28;20451;-69
2023/03/15 03:06:56;;;;;;;3.90;2.00;;;1.50;99.90;;;;;;5014782;28;20741;-74
2023/03/15 03:09:23;;;;;;;4.77;2.37;;;1.60;99.90;;;;;;5014958;28;20171;-74
2023/03/15 03:11:49;;;;;;;3.37;1.67;;;1.70;99.90;;;;;;5014419;28;20192;-75
2023/03/15 03:14:14;;;;;;;2.60;1.90;;;1.70;99.90;;;;;;5014856;28;20962;-67
2023/03/15 03:16:41;;;;;;;3.43;2.03;;;1.80;99.90;;;;;;5014985;28;20176;-67
2023/03/15 03:19:08;;;;;;;2.77;1.73;;;1.80;99.90;;;;;;5014821;28;20172;-68
2023/03/15 03:21:34;;;;;;;4.50;2.57;;;1.80;99.90;;;;;;5014119;28;20810;-74
2023/03/15 03:24:00;;;;;;;3.27;2.60;;;1.80;99.90;;;;;;5015058;28;20486;-68
2023/03/15 03:26:26;;;;;;;3.60;2.40;;;1.60;99.90;;;;;;5014618;28;20495;-74
2023/03/15 03:28:54;;;;;;;2.13;1.93;;;1.60;99.90;;;;;;5014588;28;20164;-73
2023/03/15 03:31:23;;;;;;;2.30;1.83;;;1.60;99.90;;;;;;5013834;28;20911;-67
2023/03/15 03:33:49;;;;;;;4.33;2.40;;;1.60;99.90;;;;;;5014755;28;20772;-67
2023/03/15 03:36:15;;;;;;;2.07;1.90;;;1.60;99.90;;;;;;5014534;28;20403;-73
2023/03/15 03:38:43;;;;;;;4.67;2.20;;;1.60;99.90;;;;;;5014498;28;20180;-74
2023/03/15 03:41:09;;;;;;;7.73;3.00;;;1.60;99.90;;;;;;5014220;28;20502;-68
2023/03/15 03:43:36;;;;;;;7.07;2.20;;;1.50;99.90;;;;;;5014005;28;20989;-74
2023/03/15 03:46:02;;;;;;;3.57;1.97;;;1.50;99.90;;;;;;5014321;28;20438;-74
2023/03/15 03:48:27;;;;;;;2.40;2.10;;;1.50;99.90;;;;;;5014480;28;20419;-74
2023/03/15 03:50:53;;;;;;;4.00;2.27;;;1.50;99.90;;;;;;5013657;28;20407;-67
2023/03/15 03:53:19;;;;;;;2.77;2.47;;;1.50;99.90;;;;;;5014196;28;20621;-74
2023/03/15 03:55:45;;;;;;;4.40;2.23;;;1.40;99.90;;;;;;5014226;28;20180;-67
2023/03/15 03:58:11;;;;;;;3.00;1.80;;;1.40;99.90;;;;;;5014173;28;20176;-74
2023/03/15 04:00:37;;;;;;;2.03;1.67;;;1.40;99.90;;;;;;5012631;28;20403;-74
2023/03/15 04:03:03;;;;;;;3.97;2.37;;;1.40;99.90;;;;;;5014180;28;20423;-67
2023/03/15 04:05:29;;;;;;;2.67;2.47;;;1.30;99.90;;;;;;5012603;28;20461;-71
2023/03/15 04:07:55;;;;;;;2.90;2.20;;;1.30;99.90;;;;;;5014037;28;20876;-68
2023/03/15 04:10:25;;;;;;;1.90;1.80;;;1.30;99.90;;;;;;5013421;28;20176;-73
2023/03/15 04:12:55;;;;;;;2.70;2.30;;;1.30;99.90;;;;;;5013840;28;20284;-74
2023/03/15 04:15:22;;;;;;;3.13;2.27;;;1.20;99.90;;;;;;5013800;28;20430;-68
2023/03/15 04:17:54;;;;;;;4.03;2.13;;;1.20;99.90;;;;;;5013677;28;20419;-74
2023/03/15 04:20:24;;;;;;;2.40;2.08;;;1.20;99.90;;;;;;5013125;28;20251;-67
2023/03/15 04:22:50;;;;;;;7.90;2.10;;;1.20;99.90;;;;;;5013628;28;20192;-67
2023/03/15 04:25:17;;;;;;;2.77;1.87;;;1.20;99.90;;;;;;5013686;28;20526;-73
2023/03/15 04:27:43;;;;;;;7.53;2.20;;;1.10;99.90;;;;;;5013650;28;20407;-74
2023/03/15 04:30:09;;;;;;;4.30;2.27;;;1.10;99.90;;;;;;5013002;28;20399;-66
2023/03/15 04:32:35;;;;;;;9.98;2.92;;;1.10;99.90;;;;;;5013410;28;20200;-73
2023/03/15 04:35:01;;;;;;;3.77;2.40;;;1.00;99.90;;;;;;5013417;28;20187;-67
2023/03/15 04:37:27;;;;;;;2.87;2.67;;;1.00;99.90;;;;;;5013448;28;20593;-74
2023/03/15 04:39:53;;;;;;;1.90;1.80;;;1.00;99.90;;;;;;5013245;28;20387;-73
2023/03/15 04:42:19;;;;;;;2.90;2.50;;;1.00;99.90;;;;;;5012913;28;20207;-66
2023/03/15 04:44:46;;;;;;;7.60;3.30;;;1.00;99.90;;;;;;5013352;28;20450;-73
2023/03/15 04:47:11;;;;;;;3.67;3.20;;;0.90;99.90;;;;;;5013530;28;20752;-70
2023/03/15 04:49:37;;;;;;;4.70;2.50;;;0.80;99.90;;;;;;5013387;28;20180;-67
2023/03/15 04:52:03;;;;;;;8.63;2.40;;;0.90;1.00;;;;;;5012307;28;20615;-67
2023/03/15 04:54:28;;;;;;;2.73;2.53;;;0.80;1.00;;;;;;5012186;28;20587;-67
2023/03/15 04:56:54;;;;;;;4.03;2.63;;;0.70;1.00;;;;;;5013354;28;20584;-74
2023/03/15 04:59:20;;;;;;;3.03;2.50;;;0.70;1.00;;;;;;5013345;28;20172;-74
2023/03/15 05:01:46;;;;;;;3.38;2.47;;;0.70;1.00;;;;;;5012634;28;20184;-73
2023/03/15 05:04:12;;;;;;;2.67;2.50;;;0.70;1.00;;;;;;5013110;28;20215;-74
2023/03/15 05:06:38;;;;;;;2.77;2.57;;;0.80;1.00;;;;;;5012121;28;20498;-67
2023/03/15 05:09:03;;;;;;;9.07;2.83;;;0.80;1.00;;;;;;5011728;28;20411;-67
2023/03/15 05:11:30;;;;;;;3.67;3.33;;;0.80;1.00;;;;;;5013382;28;20692;-74
2023/03/15 05:13:55;;;;;;;5.97;3.05;;;0.80;1.00;;;;;;5017190;28;20172;-72
2023/03/15 05:16:21;;;;;;;3.40;3.10;;;0.90;1.00;;;;;;5015938;28;20277;-74
2023/03/15 05:18:47;;;;;;;5.00;3.20;;;0.80;1.00;;;;;;5017133;28;20638;-67
2023/03/15 05:21:13;;;;;;;6.30;2.70;;;0.80;1.00;;;;;;5016417;28;20168;-68
2023/03/15 05:23:39;;;;;;;5.20;3.30;;;0.80;1.00;;;;;;5017027;28;20198;-67
2023/03/15 05:26:04;;;;;;;3.65;3.00;;;0.80;1.00;;;;;;5016938;28;20395;-74
2023/03/15 05:28:30;;;;;;;2.97;2.73;;;0.80;1.00;;;;;;5016734;28;20506;-74
2023/03/15 05:30:57;;;;;;;4.13;2.73;;;0.70;1.00;;;;;;5016186;28;20171;-73
2023/03/15 05:33:23;;;;;;;3.08;2.72;;;0.70;1.00;;;;;;5016866;28;20509;-67
2023/03/15 05:35:51;;;;;;;5.10;3.20;;;0.60;1.00;;;;;;5015543;28;20670;-72
2023/03/15 05:38:17;;;;;;;4.15;3.70;;;0.60;1.00;;;;;;5016629;28;20200;-73
2023/03/15 05:40:44;;;;;;;5.33;2.87;;;0.60;1.00;;;;;;5014782;28;20204;-73
2023/03/15 05:43:09;;;;;;;6.88;3.60;;;0.60;1.00;;;;;;5016285;28;20299;-74
2023/03/15 05:45:36;;;;;;;3.30;2.70;;;0.60;1.00;;;;;;5016590;28;20288;-66
2023/03/15 05:48:02;;;;;;;3.10;2.90;;;0.60;1.00;;;;;;5016537;28;20172;-67
2023/03/15 05:50:28;;;;;;;4.40;2.60;;;0.60;1.00;;;;;;5015819;28;20616;-73
2023/03/15 05:52:54;;;;;;;4.50;3.17;;;0.70;1.00;;;;;;5016397;28;20219;-74
2023/03/15 05:55:20;;;;;;;2.88;2.65;;;0.70;1.00;;;;;;5016385;28;20407;-66
2023/03/15 05:57:46;;;;;;;3.40;3.10;;;0.80;1.00;;;;;;5016464;28;20238;-73
2023/03/15 06:00:13;;;;;;;3.13;2.93;;;0.80;1.00;;;;;;5015246;28;20168;-69
2023/03/15 06:02:40;;;;;;;4.75;2.55;;;0.90;1.00;;;;;;5016146;28;20184;-74
2023/03/15 06:05:06;;;;;;;4.70;2.92;;;1.00;3.30;;;;;;5016108;28;20192;-74
2023/03/15 06:07:32;;;;;;;6.95;2.88;;;1.00;8.40;;;;;;5016144;28;20183;-74
2023/03/15 06:09:57;;;;;;;3.87;3.17;;;1.10;20.70;;;;;;5015983;28;20176;-74
2023/03/15 06:12:23;;;;;;;3.10;2.80;;;1.20;25.70;;;;;;5015587;28;20184;-67
2023/03/15 06:14:49;;;;;;;2.93;2.73;;;1.10;25.60;;;;;;5016357;28;20165;-74
2023/03/15 06:17:15;;;;;;;18.30;3.30;;;1.20;17.70;;;;;;5016015;28;20261;-69
2023/03/15 06:19:40;;;;;;;6.20;2.93;;;1.20;25.10;;;;;;5015848;28;20168;-74
2023/03/15 06:22:06;;;;;;;5.10;3.47;;;1.20;25.70;;;;;;5014681;28;20322;-68
2023/03/15 06:24:32;;;;;;;2.53;2.33;;;1.20;15.10;;;;;;5014649;28;20226;-75
2023/03/15 06:26:57;;;;;;;4.17;2.40;;;1.20;13.80;;;;;;5015801;28;20222;-74
2023/03/15 06:29:24;;;;;;;3.20;3.00;;;1.20;8.80;;;;;;5015781;28;20242;-74
2023/03/15 06:31:49;;;;;;;6.00;2.80;;;1.20;3.80;;;;;;5015146;28;20187;-74
2023/03/15 06:34:15;;;;;;;2.63;2.43;;;1.20;1.00;;;;;;5015676;28;20403;-74
2023/03/15 06:36:41;;;;;;;2.40;2.30;;;1.20;1.80;;;;;;5014098;28;20184;-74
2023/03/15 06:39:11;;;;;;;4.27;2.43;;;1.20;3.30;;;;;;5015690;28;20403;-74
2023/03/15 06:41:38;;;;;;;2.60;1.80;;;1.20;3.60;;;;;;5013791;28;20246;-74
2023/03/15 06:44:04;;;;;;;2.63;2.42;;;1.30;2.10;;;;;;5015370;28;20548;-73
2023/03/15 06:46:30;;;;;;;2.83;2.60;;;1.20;1.00;;;;;;5015511;28;20173;-74
2023/03/15 06:48:55;;;;;;;7.83;3.00;;;1.20;1.00;;;;;;5015386;28;20164;-68
2023/03/15 06:51:21;;;;;;;5.90;2.43;;;1.20;1.00;;;;;;5014698;28;20188;-74
2023/03/15 06:53:47;;;;;;;3.83;2.57;;;1.10;1.00;;;;;;5015287;28;20690;-68
2023/03/15 06:56:13;;;;;;;4.63;2.80;;;1.10;1.00;;;;;;5014071;28;20418;-68
2023/03/15 06:58:38;;;;;;;2.53;2.33;;;1.10;1.00;;;;;;5015248;28;20215;-69
2023/03/15 07:01:04;;;;;;;4.57;2.57;;;1.10;1.00;;;;;;5014458;28;20203;-68
2023/03/15 07:03:30;;;;;;;6.90;3.07;;;1.10;1.00;;;;;;5015081;28;20251;-74
2023/03/15 07:05:55;;;;;;;2.80;2.47;;;1.10;1.00;;;;;;5015187;28;20168;-71
2023/03/15 07:08:22;;;;;;;10.57;2.47;;;1.20;1.00;;;;;;5015308;28;20222;-68
2023/03/15 07:10:49;;;;;;;13.90;3.30;;;1.20;1.00;;;;;;5014010;28;20524;-68
2023/03/15 07:13:17;;;;;;;5.25;2.60;;;1.30;1.00;;;;;;5013620;28;20477;-69
2023/03/15 07:15:43;;;;;;;5.50;2.60;;;1.30;1.00;;;;;;5015064;28;20179;-74
2023/03/15 07:18:09;;;;;;;3.30;2.63;;;1.30;1.00;;;;;;5014848;28;20402;-68
2023/03/15 07:20:35;;;;;;;2.50;2.40;;;1.40;1.00;;;;;;5014246;28;20411;-74
2023/03/15 07:23:00;;;;;;;2.43;2.23;;;1.40;1.00;;;;;;5014794;28;20188;-74
2023/03/15 07:25:26;;;;;;;4.70;2.47;;;1.40;1.00;;;;;;5014681;28;20504;-68
2023/03/15 07:27:52;;;;;;;2.70;2.50;;;1.50;1.00;;;;;;5013543;28;20172;-73
2023/03/15 07:30:19;;;;;;;7.43;2.67;;;1.50;1.00;;;;;;5013767;28;20176;-74
2023/03/15 07:32:45;;;;;;;3.70;2.67;;;1.50;1.00;;;;;;5014570;28;20783;-73
2023/03/15 07:35:12;;;;;;;8.33;2.50;;;1.60;1.00;;;;;;5012644;28;20411;-69
2023/03/15 07:37:38;;;;;;;4.22;2.20;;;1.60;1.00;;;;;;5014576;28;20410;-68
2023/03/15 07:40:08;;;;;;;5.60;3.50;;;1.60;1.00;;;;;;5014122;28;20541;-75
2023/03/15 07:42:37;;;;;;;4.43;2.73;;;1.70;1.00;;;;;;5014329;28;20254;-70
2023/03/15 07:45:04;;;;;;;7.00;2.80;;;1.80;1.00;;;;;;5014326;28;20446;-68
2023/03/15 07:47:31;;;;;;;4.53;2.90;;;1.90;1.00;;;;;;5014114;28;20753;-73
2023/03/15 07:49:56;;;;;;;6.30;3.03;;;1.80;1.00;;;;;;5014072;28;20450;-70
2023/03/15 07:52:22;;;;;;;2.57;2.47;;;1.90;1.00;;;;;;5013841;28;20423;-69
2023/03/15 07:54:48;;;;;;;2.70;2.50;;;2.00;1.00;;;;;;5014271;28;20577;-73
2023/03/15 07:57:14;;;;;;;6.53;3.13;;;2.10;1.00;;;;;;5014156;28;20400;-74
2023/03/15 07:59:39;;;;;;;12.10;4.30;;;2.10;1.00;;;;;;5013144;28;20176;-68
2023/03/15 08:02:05;;;;;;;2.40;2.30;;;2.20;1.00;;;;;;5013384;28;20270;-68
2023/03/15 08:04:31;;;;;;;3.53;3.23;;;2.30;1.00;;;;;;5012717;28;20199;-69
2023/03/15 08:06:57;;;;;;;8.30;3.57;;;2.40;1.00;;;;;;5012810;28;20640;-69
2023/03/15 08:09:23;;;;;;;5.03;3.83;;;2.50;1.00;;;;;;5013920;28;20213;-71
2023/03/15 08:11:49;;;;;;;7.60;2.83;;;2.60;1.00;;;;;;5013322;28;20243;-74
2023/03/15 08:14:15;;;;;;;4.57;4.17;;;2.70;1.00;;;;;;5013920;28;20395;-68
2023/03/15 08:16:41;;;;;;;4.57;4.17;;;2.90;1.00;;;;;;5013952;28;20487;-74
2023/03/15 08:19:08;;;;;;;3.50;3.10;;;3.00;1.00;;;;;;5013914;28;20568;-69
2023/03/15 08:21:33;;;;;;;3.53;2.77;;;3.00;1.00;;;;;;5012696;28;20203;-71
2023/03/15 08:23:59;;;;;;;4.60;3.40;;;2.90;1.00;;;;;;5013679;28;20447;-69
2023/03/15 08:26:25;;;;;;;4.47;3.37;;;2.80;1.00;;;;;;5012761;28;20175;-69
2023/03/15 08:28:51;;;;;;;5.57;2.67;;;2.90;1.00;;;;;;5013648;28;20935;-69
2023/03/15 08:31:17;;;;;;;3.00;2.80;;;2.90;1.00;;;;;;5011628;28;20230;-70
2023/03/15 08:33:42;;;;;;;6.37;2.80;;;2.80;1.00;;;;;;5012343;28;20171;-73
2023/03/15 08:36:08;;;;;;;7.63;2.20;;;2.70;1.00;;;;;;5013616;28;20160;-74
2023/03/15 08:38:34;;;;;;;4.60;2.30;;;2.60;1.00;;;;;;5012336;28;20415;-69
2023/03/15 08:41:01;;;;;;;8.30;2.13;;;2.50;1.00;;;;;;5011331;28;20175;-73
2023/03/15 08:43:26;;;;;;;7.50;2.37;;;2.40;1.00;;;;;;5021366;28;21006;-73
2023/03/15 08:45:52;;;;;;;2.07;1.90;;;2.40;1.00;;;;;;5028427;28;20533;-72
2023/03/15 08:48:18;;;;;;;2.50;2.10;;;2.20;1.00;;;;;;5032954;28;20171;-72
2023/03/15 08:50:44;;;;;;;1.83;1.73;;;2.30;1.00;;;;;;5031182;28;20167;-73
2023/03/15 08:53:10;;;;;;;3.80;2.13;;;2.30;1.00;;;;;;5028591;28;20195;-68
2023/03/15 08:55:36;;;;;;;3.10;2.47;;;2.50;1.00;;;;;;5021839;28;20403;-72
2023/03/15 08:58:04;;;;;;;2.87;1.80;;;2.70;1.00;;;;;;5011748;28;20419;-72
2023/03/15 09:00:30;;;;;;;3.70;2.13;;;2.90;1.00;;;;;;5028555;28;20510;-69
2023/03/15 09:02:56;;;;;;;3.00;2.00;;;3.00;1.00;;;;;;5032888;28;20834;-72
2023/03/15 09:05:23;;;;;;;4.13;1.73;;;3.20;1.00;;;;;;5032646;28;20465;-74
2023/03/15 09:07:51;;;;;;;2.40;2.20;;;3.30;1.00;;;;;;5032752;28;20213;-70
2023/03/15 09:10:18;;;;;;;2.30;2.00;;;3.50;1.00;;;;;;5032050;28;20411;-70
2023/03/15 09:12:47;;;;;;;3.30;2.07;;;3.60;1.00;;;;;;5029848;28;20418;-68
2023/03/15 09:15:13;;;;;;;5.77;2.20;;;3.70;1.00;;;;;;5032385;28;20413;-68
2023/03/15 09:17:40;;;;;;;2.27;1.97;;;3.70;1.00;;;;;;5032578;28;20418;-67
2023/03/15 09:20:11;;;;;;;4.50;2.20;;;3.70;1.00;;;;;;5031027;28;20274;-78
2023/03/15 09:22:36;;;;;;;2.50;1.60;;;3.80;1.00;;;;;;5027392;28;20461;-67
2023/03/15 09:25:03;;;;;;;4.07;1.90;;;3.80;99.90;;;;;;5032472;28;20448;-68
2023/03/15 09:27:30;;;;;;;4.43;2.30;;;3.90;99.90;;;;;;5031297;28;20167;-72
2023/03/15 09:29:56;;;;;;;2.20;1.93;;;3.90;99.90;;;;;;5032518;28;20493;-67
2023/03/15 09:32:22;;;;;;;7.20;2.90;;;4.20;99.90;;;;;;5032111;28;20513;-70
2023/03/15 09:34:48;;;;;;;2.00;1.80;;;4.40;99.90;;;;;;5031857;28;20418;-69
2023/03/15 09:37:14;;;;;;;1.87;1.70;;;4.50;99.90;;;;;;5032587;28;20160;-67
2023/03/15 09:39:43;;;;;;;5.50;2.13;;;4.50;99.90;;;;;;5032502;28;20469;-72
2023/03/15 09:42:27;;;;;;;4.00;2.00;;;4.80;99.90;;;;;;5031724;28;20449;-69
2023/03/15 09:45:13;;;;;;;1.80;1.70;;;4.90;99.90;;;;;;5032219;28;20450;-71
2023/03/15 09:48:04;;;;;;;2.37;2.17;;;4.80;99.90;;;;;;5032519;28;20928;-69
2023/03/15 09:50:50;;;;;;;2.70;1.83;;;5.10;99.90;;;;;;5024262;28;20540;-68
2023/03/15 09:53:23;;;;;;;1.80;1.70;;;4.90;99.90;;;;;;5012723;28;20423;-68
2023/03/15 09:55:51;;;;;;;2.97;2.30;;;4.60;99.90;;;;;;5021318;28;20418;-73
2023/03/15 09:58:22;;;;;;;5.53;2.43;;;4.40;99.90;;;;;;5034205;28;20406;-69
2023/03/15 10:01:01;;;;;;;2.47;1.83;;;4.30;99.90;;;;;;5035520;28;20470;-68
2023/03/15 10:03:50;;;;;;;3.90;2.00;;;4.40;99.90;;;;;;5030694;28;20448;-68
2023/03/15 10:06:27;;;;;;;6.20;2.30;;;4.70;99.90;;;;;;5016867;28;20491;-70
2023/03/15 10:08:58;;;;;;;3.30;2.30;;;5.40;99.90;;;;;;5033062;28;20423;-71
2023/03/15 10:11:37;;;;;;;2.40;2.20;;;6.00;99.90;;;;;;5035231;28;20566;-70
2023/03/15 10:14:29;;;;;;;3.00;2.03;;;6.30;99.90;;;;;;5035733;28;20421;-72
2023/03/15 10:16:55;;;;;;;3.63;1.73;;;6.90;99.90;;;;;;5007820;28;20444;-71
2023/03/15 10:19:33;;;;;;;4.90;2.00;;;6.90;99.90;;;;;;5030339;28;20431;-72
2023/03/15 10:22:24;;;;;;;3.60;2.23;;;6.60;99.90;;;;;;5033695;28;20199;-69
2023/03/15 10:25:37;;;;;;;4.57;2.20;;;6.30;99.90;;;;;;5031766;28;20461;-69
2023/03/15 10:31:29;;;;;;;4.67;2.30;;;6.80;99.90;;;;;;5035011;28;20818;-71
2023/03/15 10:33:56;;;;;;;3.07;1.80;;;7.00;99.90;;;;;;5018038;28;20930;-70
2023/03/15 10:36:24;;;;;;;4.80;1.80;;;7.40;99.90;;;;;;5034162;28;20403;-72
2023/03/15 10:38:49;;;;;;;2.23;1.60;;;7.40;99.90;;;;;;5035326;28;20895;-73
2023/03/15 10:41:36;;;;;;;3.17;2.77;;;6.60;98.50;;;;;;5034867;28;20433;-73
2023/03/15 10:44:06;;;;;;;2.37;1.60;;;6.30;91.10;;;;;;5034842;28;20262;-73
2023/03/15 10:46:34;;;;;;;2.57;1.47;;;6.70;91.30;;;;;;5035210;28;20394;-72
2023/03/15 10:49:07;;;;;;;1.57;1.47;;;7.10;81.00;;;;;;5035198;28;20398;-73
2023/03/15 10:51:42;;;;;;;2.17;1.67;;;7.50;66.70;;;;;;5017005;28;20930;-74
2023/03/15 10:54:16;;;;;;;2.60;1.53;;;7.80;37.40;;;;;;5035193;28;20409;-70
2023/03/15 10:57:17;;;;;;;2.50;1.70;;;8.40;28.70;;;;;;5035088;28;20815;-74
2023/03/15 11:00:05;;;;;;;3.67;1.77;;;9.10;22.20;;;;;;5035093;28;20439;-70
2023/03/15 11:02:32;;;;;;;2.00;1.80;;;9.90;47.80;;;;;;5034513;28;20435;-72
2023/03/15 11:05:11;;;;;;;1.60;1.50;;;9.40;1.00;;;;;;5034808;28;20432;-73
2023/03/15 11:07:37;;;;;;;5.67;1.80;;;9.20;1.00;;;;;;5034912;28;20481;-70
2023/03/15 11:10:05;;;;;;;9.00;1.80;;;9.20;1.00;;;;;;5034734;28;20375;-74
2023/03/15 11:12:33;;;;;;;4.23;1.67;;;8.70;1.00;;;;;;5034816;28;20421;-70
2023/03/15 11:15:25;;;;;;;11.07;2.00;;;8.30;1.00;;;;;;5034641;28;20411;-72
2023/03/15 11:17:51;;;;;;;2.07;1.77;;;7.80;1.00;;;;;;5013643;28;20414;-72
2023/03/15 11:20:37;;;;;;;2.27;1.80;;;7.60;1.00;;;;;;5016057;28;20406;-70
2023/03/15 11:23:30;;;;;;;4.20;1.90;;;7.10;1.00;;;;;;5017010;28;20231;-73
2023/03/15 11:25:57;;;;;;;1.73;1.63;;;7.10;1.00;;;;;;5034589;28;20814;-70
2023/03/15 11:28:26;;;;;;;3.17;1.77;;;6.80;1.00;;;;;;5034443;28;20427;-73
2023/03/15 11:30:54;;;;;;;2.00;1.80;;;6.50;1.00;;;;;;5033792;28;20960;-75
2023/03/15 11:33:58;;;;;;;2.50;1.67;;;6.10;1.00;;;;;;5016918;28;20449;-71
2023/03/15 11:36:29;;;;;;;8.80;2.27;;;5.70;1.00;;;;;;5016880;28;20419;-72
2023/03/15 11:38:55;;;;;;;5.57;1.80;;;5.40;1.00;;;;;;5033767;28;20390;-71
2023/03/15 11:41:54;;;;;;;1.80;1.70;;;5.20;1.00;;;;;;5033571;28;20429;-72
2023/03/15 11:44:45;;;;;;;2.00;1.90;;;4.90;22.70;;;;;;5016404;28;20581;-71
2023/03/15 11:47:31;;;;;;;2.03;1.93;;;4.90;78.40;;;;;;5034147;28;20404;-73
2023/03/15 11:49:58;;;;;;;5.50;1.80;;;5.20;99.90;;;;;;5016482;28;20429;-71
2023/03/15 11:52:28;;;;;;;10.70;1.80;;;5.60;99.90;;;;;;5033550;28;20428;-71
2023/03/15 11:55:02;;;;;;;2.00;1.90;;;5.90;99.90;;;;;;5033650;28;20402;-74
2023/03/15 11:57:28;;;;;;;1.80;1.53;;;6.20;99.90;;;;;;5033698;28;20904;-71
2023/03/15 11:59:55;;;;;;;2.37;2.00;;;6.60;99.60;;;;;;5033802;28;20490;-73
2023/03/15 12:02:25;;;;;;;2.90;2.60;;;7.00;99.90;;;;;;5033345;28;20720;-71
2023/03/15 12:04:57;;;;;;;2.43;1.70;;;7.20;91.40;;;;;;5033618;28;20478;-71
2023/03/15 12:07:30;;;;;;;3.40;1.90;;;7.60;86.70;;;;;;5015883;28;20442;-72
2023/03/15 12:10:03;;;;;;;4.53;1.93;;;8.30;91.80;;;;;;5033812;28;20430;-74
2023/03/15 12:12:29;;;;;;;7.37;1.67;;;8.90;49.80;;;;;;5033528;28;20471;-73
2023/03/15 12:15:13;;;;;;;5.23;1.90;;;9.40;39.20;;;;;;5033028;28;20414;-73
2023/03/15 12:17:44;;;;;;;3.97;1.70;;;9.70;12.10;;;;;;5016253;28;20567;-73
2023/03/15 12:20:17;;;;;;;2.77;1.97;;;10.00;2.50;;;;;;5032425;28;20912;-72
2023/03/15 12:23:07;;;;;;;2.70;1.63;;;10.40;1.00;;;;;;5016058;28;20469;-70
2023/03/15 12:26:01;;;;;;;4.97;1.73;;;9.80;1.00;;;;;;5015778;28;20436;-70
2023/03/15 12:28:54;;;;;;;2.80;1.77;;;9.70;1.00;;;;;;5013245;28;20441;-70
2023/03/15 12:31:20;;;;;;;3.30;1.40;;;9.40;1.00;;;;;;5032076;28;20433;-70
2023/03/15 12:33:53;;;;;;;3.17;1.80;;;10.10;1.00;;;;;;5033368;28;20389;-70
2023/03/15 12:36:33;;;;;;;5.00;1.43;;;11.50;1.00;;;;;;5033302;28;20463;-70
2023/03/15 12:39:20;;;;;;;2.90;1.27;;;12.00;1.00;;;;;;5033288;28;20849;-70
2023/03/15 12:41:50;;;;;;;3.70;1.63;;;12.60;1.00;;;;;;5032464;28;20939;-73
2023/03/15 12:44:37;;;;;;;3.03;1.20;;;12.60;1.00;;;;;;5033274;28;20529;-69
2023/03/15 12:47:05;;;;;;;6.03;1.73;;;11.30;1.00;;;;;;5032656;28;20470;-71
2023/03/15 12:49:35;;;;;;;2.27;1.30;;;10.80;1.00;;;;;;5032966;28;20430;-70
2023/03/15 12:52:15;;;;;;;5.13;1.87;;;9.90;1.00;;;;;;5032475;28;20393;-74
2023/03/15 12:55:14;;;;;;;4.20;1.67;;;8.50;1.00;;;;;;5033176;28;20413;-72
2023/03/15 12:57:49;;;;;;;4.30;2.40;;;7.20;1.00;;;;;;5032938;28;20831;-74
2023/03/15 13:00:18;;;;;;;3.70;2.20;;;6.40;1.00;;;;;;5032370;28;20417;-72
2023/03/15 13:02:49;;;;;;;3.83;2.07;;;5.60;1.00;;;;;;5033012;28;20426;-72
2023/03/15 13:05:21;;;;;;;2.47;1.93;;;5.10;1.00;;;;;;5014981;28;20816;-71
2023/03/15 13:08:05;;;;;;;4.83;2.30;;;4.80;1.00;;;;;;5014646;28;20749;-70
2023/03/15 13:10:49;;;;;;;7.93;2.30;;;5.00;1.00;;;;;;5032364;28;20468;-72
2023/03/15 13:13:36;;;;;;;2.70;1.70;;;6.80;47.40;;;;;;5015206;28;20863;-70
2023/03/15 13:16:42;;;;;;;2.20;1.43;;;8.70;1.00;;;;;;5032886;28;20405;-73